Chitungwiza, Zimbabwe
Current Conditions -  °F | °C
As of 11:00 PM on Wednesday 22 Oct 2014 (Local Time) from FQCH Reporting Station
Clear Clear  
Wind Chill: 64°   Ceiling: Unl
Heat Index: 64°   Visibility: 6mi
Dew Point: 61°   Wind: 9mph
Humidity: 88%   Direction: 130°SE
Pressure: 30.21"   Gusts: NA
Location:  18.78°S, 32.62°E
Report Text: FQCH 222100Z 13008KT CAVOK 18/16 Q1023
Loading
Personal Weather Stations






























Interactive Weather Map
Tropical Storm Tracking
New forecast layout! Learn more

10-Day Weather Forecast

Advertisements
Track Severe Weather on mobile